EmailTwitter


Surface observations / United Kingdom / EGLL (03772)

Regions: Quebec | Canada | USA | Europe | France | UK | Elsewhere
Station
Display
Info & Location for EGLL (03772) | Help decoding METAR

Weather Conditions observed on 2019/10/23 at 23:50 UTC at LONDON/HEATHROW, UK (EGLL)

Sky conditions: overcast.

Obstruction(s) to Vision: fog.

Temperature: 13.0 Celsius.

Dewpoint: 12.0 Celsius.

Relative Humidity: 94%

Winds: Variable at 4 km/h or 2 knots.

Mean Sea level Pressure: 100.50 kilopascals.

Horizontal visibility: 3.11 statute miles or 4.97 kilometers.

Height of the Ceiling: 244 metres ( 800 feet ).

Coded METAR:

EGLL 232350Z AUTO VRB02KT 5000 BR BKN008 OVC013 13/12 Q1005=